Hauptseite
METAR-TAF:

METAR-TAF

Flughäfen :

Damaskus, Syrien

Flughafen Damaskus

Breite: 33-25N, Länge: 036-31E, Höhe: 608 m

Beobachtung

Neuester Wetterbericht von vor 22 Minuten, um 08:00 UTC
Wind 4 kt aus Ost
Temperatur 26°C
Luftfeuchtigkeit 14%
Luftdruck 1016 hPa
Sichtweite 10 km oder mehr
keine Wolken unter 1500 m und keine Kumulonimbus oder Gewitterwolken

METAR: OSDI 280800Z 09004KT CAVOK 26/M04 Q1016

Zeit: 11:22 (08:22 UTC)

Prognose

Gültige Prognose vom 28 um 06 UTC bis 29 um 12 UTC
Wind 3 kt aus unterschiedlichen Richtungen
Sichtweite 10 km oder mehr
keine Wolken unter 1500 m und keine Kumulonimbus oder Gewitterwolken
Zeitweise
vom 28 um 12 UTC bis 28 um 18 UTC
Wind 10 kt aus Nord/Nordost
Leicht bewölkt in der Höhe von 3000 ft

TAF: OSDI 2806/2912 VRB03KT CAVOK TEMPO 2812/2818 03010KT FEW030

Wetterbeobachtungen und Prognosen von mehr als 4000 Flughäfen (METAR und TAF Bericht).

Die verfügbaren Stationen werden durch gelbe und rote Markierungen auf der Karte dargestellt.

Führen Sie die Maus auf sie, um den Namen der Station zu sehen.

Darauf klicken, um die Beobachtung von Wetterbeobachtungen und Prognosen zu sehen.

Um die Karte zu ändern : klicken Sie auf den grünen Tasten mit einem schwarzen Kreuz Zum Vergrößern, auf den grünen Button mit einem Gedankenstrich zu verkleinern, oder auf die grünen Pfeile für benachbarte Karten.


METAR-TAF: